Time,TemperatureF,DewpointF,PressureIn,WindDirection,WindDirectionDegrees,WindSpeedMPH,WindSpeedGustMPH,Humidity,HourlyPrecipIn,Conditions,Clouds,dailyrainin,SoftwareType,DateUTC
2013-04-12 00:00:00,53.1,46.4,29.61,West,270,6.9,6.9,78,0.08,-RA,,0.08,WeatherDisplay:10.37,2013-04-12 04:00:00,
2013-04-12 00:01:00,53.1,46.4,29.61,West,270,8.1,8.1,78,0.08,-RA,,0.08,WeatherDisplay:10.37,2013-04-12 04:01:00,
2013-04-12 00:06:00,52.9,46.2,29.61,WNW,292,5.8,5.8,78,0.08,-RA,,0.12,WeatherDisplay:10.37,2013-04-12 04:06:00,
2013-04-12 00:11:00,52.5,45.9,29.61,WNW,292,9.2,9.2,78,0.08,-RA,,0.12,WeatherDisplay:10.37,2013-04-12 04:11:00,
2013-04-12 00:16:00,52.3,45.7,29.61,West,270,8.1,8.1,78,0.08,-RA,,0.12,WeatherDisplay:10.37,2013-04-12 04:16:00,
2013-04-12 00:21:00,52.2,45.5,29.61,West,270,6.9,6.9,78,0.08,-RA,,0.12,WeatherDisplay:10.37,2013-04-12 04:21:00,
2013-04-12 00:26:00,52.0,45.3,29.61,West,270,9.2,9.2,78,0.08,-RA,,0.12,WeatherDisplay:10.37,2013-04-12 04:26:00,
2013-04-12 00:31:00,51.8,45.2,29.61,West,270,6.9,6.9,78,0.08,-RA,,0.12,WeatherDisplay:10.37,2013-04-12 04:31:00,
2013-04-12 00:36:00,51.8,45.2,29.61,West,270,9.2,9.2,78,0.08,OVC,,0.12,WeatherDisplay:10.37,2013-04-12 04:36:00,
2013-04-12 00:41:00,51.6,45.0,29.61,West,270,9.2,9.2,78,0.08,OVC,,0.12,WeatherDisplay:10.37,2013-04-12 04:41:00,
2013-04-12 00:46:00,51.6,45.0,29.61,SE,135,6.9,6.9,78,0.04,OVC,,0.12,WeatherDisplay:10.37,2013-04-12 04:46:00,
2013-04-12 00:51:00,51.1,44.5,29.61,NW,315,9.2,9.2,78,0.04,-RA,,0.12,WeatherDisplay:10.37,2013-04-12 04:51:00,
2013-04-12 00:56:00,50.7,44.1,29.61,NW,315,9.2,9.2,78,0.04,-RA,,0.12,WeatherDisplay:10.37,2013-04-12 04:56:00,
2013-04-12 01:01:00,50.7,44.1,29.61,West,270,11.5,11.5,78,0.04,-RA,,0.12,WeatherDisplay:10.37,2013-04-12 05:01:00,
2013-04-12 01:06:00,50.5,43.9,29.61,West,270,9.2,9.2,78,0.00,OVC,,0.12,WeatherDisplay:10.37,2013-04-12 05:06:00,
2013-04-12 01:11:00,50.4,43.8,29.61,West,270,8.1,8.1,78,0.00,OVC,,0.12,WeatherDisplay:10.37,2013-04-12 05:11:00,
2013-04-12 01:16:00,50.0,43.4,29.61,North,0,10.0,10.0,78,0.00,OVC,,0.12,WeatherDisplay:10.37,2013-04-12 05:16:00,
2013-04-12 01:21:00,49.8,43.2,29.61,West,270,6.9,6.9,78,0.00,-RA,,0.12,WeatherDisplay:10.37,2013-04-12 05:21:00,
2013-04-12 01:26:00,49.5,42.9,29.61,West,270,9.8,9.8,78,0.00,-RA,,0.12,WeatherDisplay:10.37,2013-04-12 05:26:00,
2013-04-12 01:31:00,49.5,42.9,29.61,West,270,9.2,9.2,78,0.00,-RA,,0.12,WeatherDisplay:10.37,2013-04-12 05:31:00,
2013-04-12 01:36:00,49.3,42.7,29.64,NW,315,9.2,9.2,78,0.00,-RA,,0.12,WeatherDisplay:10.37,2013-04-12 05:36:00,
2013-04-12 01:41:00,49.3,42.7,29.64,NW,315,6.9,6.9,78,0.04,-RA,,0.16,WeatherDisplay:10.37,2013-04-12 05:41:00,
2013-04-12 01:46:00,49.1,42.5,29.64,WNW,292,11.5,11.5,78,0.04,-RA,,0.16,WeatherDisplay:10.37,2013-04-12 05:46:00,
2013-04-12 01:51:00,48.7,42.2,29.64,West,270,12.7,12.7,78,0.04,-RA,,0.16,WeatherDisplay:10.37,2013-04-12 05:51:00,
2013-04-12 01:56:00,48.6,42.0,29.64,West,270,8.1,8.1,78,0.04,-RA,,0.16,WeatherDisplay:10.37,2013-04-12 05:56:00,
2013-04-12 02:02:00,48.0,41.5,29.64,West,270,9.2,9.2,78,0.04,-RA,,0.16,WeatherDisplay:10.37,2013-04-12 06:02:00,
2013-04-12 02:07:00,47.7,41.1,29.64,NNW,338,8.1,8.1,78,0.04,-RA,,0.16,WeatherDisplay:10.37,2013-04-12 06:07:00,
2013-04-12 02:12:00,47.1,46.6,29.64,WNW,292,16.1,16.1,98,0.04,-RA,,0.16,WeatherDisplay:10.37,2013-04-12 06:12:00,
2013-04-12 02:17:00,46.8,46.2,29.64,WSW,248,10.4,10.4,98,0.04,-RA,,0.16,WeatherDisplay:10.37,2013-04-12 06:17:00,
2013-04-12 02:22:00,46.4,45.9,29.61,NNE,22,9.4,9.4,98,0.04,-RA,,0.16,WeatherDisplay:10.37,2013-04-12 06:22:00,
2013-04-12 02:29:00,46.0,46.0,29.61,West,270,8.1,8.1,100,0.04,-RA,,0.16,WeatherDisplay:10.37,2013-04-12 06:29:00,
2013-04-12 02:34:00,46.0,46.0,29.61,NW,315,11.5,11.5,100,0.04,-RA,,0.16,WeatherDisplay:10.37,2013-04-12 06:34:00,
2013-04-12 02:39:00,46.0,46.0,29.61,West,270,10.4,10.4,100,0.00,-RA,,0.16,WeatherDisplay:10.37,2013-04-12 06:39:00,
2013-04-12 02:44:00,46.0,46.0,29.61,NNW,338,12.7,12.7,100,0.00,-RA,,0.16,WeatherDisplay:10.37,2013-04-12 06:44:00,
2013-04-12 02:49:00,46.0,46.0,29.58,WNW,292,10.4,10.4,100,0.00,-RA,,0.16,WeatherDisplay:10.37,2013-04-12 06:49:00,
2013-04-12 02:54:00,46.0,46.0,29.58,WNW,292,8.1,8.1,100,0.00,-RA,,0.16,WeatherDisplay:10.37,2013-04-12 06:54:00,
2013-04-12 02:59:00,45.9,45.9,29.58,West,270,12.7,12.7,100,0.00,-RA,,0.16,WeatherDisplay:10.37,2013-04-12 06:59:00,
2013-04-12 03:04:00,45.9,45.9,29.64,West,270,10.4,10.4,100,0.00,OVC,,0.16,WeatherDisplay:10.37,2013-04-12 07:04:00,
2013-04-12 03:09:00,45.9,45.9,29.64,NW,315,11.5,11.5,100,0.00,OVC,,0.16,WeatherDisplay:10.37,2013-04-12 07:09:00,
2013-04-12 03:14:00,45.7,45.1,29.64,NW,315,6.9,6.9,98,0.00,OVC,,0.16,WeatherDisplay:10.37,2013-04-12 07:14:00,
2013-04-12 03:19:00,45.5,44.7,29.64,West,270,6.9,6.9,97,0.00,OVC,,0.16,WeatherDisplay:10.37,2013-04-12 07:19:00,
2013-04-12 03:24:00,45.3,44.0,29.64,WNW,292,10.2,10.2,95,0.00,OVC,,0.16,WeatherDisplay:10.37,2013-04-12 07:24:00,
2013-04-12 03:29:00,45.1,43.0,29.64,NW,315,12.7,12.7,92,0.00,OVC,,0.16,WeatherDisplay:10.37,2013-04-12 07:29:00,
2013-04-12 03:34:00,45.1,44.3,29.67,West,270,13.0,13.0,97,0.00,OVC,,0.16,WeatherDisplay:10.37,2013-04-12 07:34:00,
2013-04-12 03:39:00,44.8,41.4,29.67,West,270,8.1,8.1,88,0.00,OVC,,0.16,WeatherDisplay:10.37,2013-04-12 07:39:00,
2013-04-12 03:44:00,44.8,40.8,29.67,West,270,8.1,8.1,86,0.00,OVC,,0.16,WeatherDisplay:10.37,2013-04-12 07:44:00,
2013-04-12 03:49:00,44.6,39.4,29.67,West,270,8.1,8.1,82,0.00,OVC,,0.16,WeatherDisplay:10.37,2013-04-12 07:49:00,
2013-04-12 03:54:00,44.2,38.5,29.67,West,270,13.8,13.8,80,0.00,OVC,,0.16,WeatherDisplay:10.37,2013-04-12 07:54:00,
2013-04-12 03:59:00,43.9,37.5,29.67,West,270,9.2,9.2,78,0.00,OVC,,0.16,WeatherDisplay:10.37,2013-04-12 07:59:00,
2013-04-12 04:04:00,43.5,37.1,29.67,WNW,292,10.4,10.4,78,0.00,BKN,,0.16,WeatherDisplay:10.37,2013-04-12 08:04:00,
2013-04-12 04:09:00,43.2,36.8,29.67,West,270,7.8,7.8,78,0.00,BKN,,0.16,WeatherDisplay:10.37,2013-04-12 08:09:00,
2013-04-12 04:14:00,43.0,36.6,29.67,NW,315,8.1,8.1,78,0.00,BKN,,0.16,WeatherDisplay:10.37,2013-04-12 08:14:00,
2013-04-12 04:19:00,42.8,37.7,29.64,West,270,9.2,9.2,82,0.00,SCT,,0.16,WeatherDisplay:10.37,2013-04-12 08:19:00,
2013-04-12 04:24:00,42.4,37.9,29.64,West,270,9.2,9.2,84,0.00,SCT,,0.16,WeatherDisplay:10.37,2013-04-12 08:24:00,
2013-04-12 04:29:00,42.1,36.4,29.64,West,270,9.2,9.2,80,0.00,SCT,,0.16,WeatherDisplay:10.37,2013-04-12 08:29:00,
2013-04-12 04:34:00,41.4,35.7,29.67,WSW,248,8.1,8.1,80,0.00,SCT,,0.16,WeatherDisplay:10.37,2013-04-12 08:34:00,
2013-04-12 04:39:00,41.2,35.5,29.67,West,270,8.7,8.7,80,0.00,SCT,,0.16,WeatherDisplay:10.37,2013-04-12 08:39:00,
2013-04-12 04:44:00,41.0,34.7,29.67,West,270,9.2,9.2,78,0.00,SCT,,0.16,WeatherDisplay:10.37,2013-04-12 08:44:00,
2013-04-12 04:49:00,40.6,35.0,29.70,WSW,248,5.8,5.8,80,0.00,SCT,,0.16,WeatherDisplay:10.37,2013-04-12 08:49:00,
2013-04-12 04:54:00,40.5,34.1,29.70,West,270,9.2,9.2,78,0.00,SCT,,0.16,WeatherDisplay:10.37,2013-04-12 08:54:00,
2013-04-12 04:59:00,40.3,34.0,29.70,WNW,292,9.2,9.2,78,0.00,SCT,,0.16,WeatherDisplay:10.37,2013-04-12 08:59:00,
2013-04-12 05:04:00,39.9,34.2,29.73,West,270,8.1,8.1,80,0.00,SCT,,0.16,WeatherDisplay:10.37,2013-04-12 09:04:00,
2013-04-12 05:09:00,39.7,34.1,29.73,West,270,6.2,7.1,80,0.00,SCT,,0.16,WeatherDisplay:10.37,2013-04-12 09:09:00,
2013-04-12 05:14:00,39.7,34.7,29.73,WSW,248,5.8,5.8,82,0.00,SCT,,0.16,WeatherDisplay:10.37,2013-04-12 09:14:00,
2013-04-12 05:19:00,39.7,34.7,29.73,WSW,248,8.1,8.1,82,0.00,CLR,,0.16,WeatherDisplay:10.37,2013-04-12 09:19:00,
2013-04-12 05:24:00,39.7,34.7,29.73,WNW,292,6.9,6.9,82,0.00,CLR,,0.16,WeatherDisplay:10.37,2013-04-12 09:24:00,
2013-04-12 05:29:00,39.9,34.2,29.73,WSW,248,9.2,9.2,80,0.00,CLR,,0.16,WeatherDisplay:10.37,2013-04-12 09:29:00,
2013-04-12 05:34:00,39.9,34.9,29.73,WSW,248,8.1,8.1,82,0.00,CLR,,0.16,WeatherDisplay:10.37,2013-04-12 09:34:00,
2013-04-12 05:39:00,39.7,34.7,29.73,WSW,248,5.8,5.8,82,0.00,CLR,,0.16,WeatherDisplay:10.37,2013-04-12 09:39:00,
2013-04-12 05:44:00,39.6,35.1,29.73,SW,225,6.0,7.1,84,0.00,CLR,,0.16,WeatherDisplay:10.37,2013-04-12 09:44:00,
2013-04-12 05:49:00,39.2,35.9,29.73,West,270,4.7,4.7,88,0.00,CLR,,0.16,WeatherDisplay:10.37,2013-04-12 09:49:00,
2013-04-12 05:54:00,39.0,34.6,29.73,WSW,248,5.9,5.9,84,0.00,CLR,,0.16,WeatherDisplay:10.37,2013-04-12 09:54:00,
2013-04-12 05:59:00,38.7,34.2,29.73,WSW,248,5.8,5.8,84,0.00,CLR,,0.16,WeatherDisplay:10.37,2013-04-12 09:59:00,
2013-04-12 06:04:00,38.5,32.8,29.73,West,270,9.2,9.2,80,0.00,BKN,,0.16,WeatherDisplay:10.37,2013-04-12 10:04:00,
2013-04-12 06:09:00,38.3,32.7,29.73,West,270,6.9,6.9,80,0.00,BKN,,0.16,WeatherDisplay:10.37,2013-04-12 10:09:00,
2013-04-12 06:14:00,38.1,33.1,29.73,West,270,6.9,6.9,82,0.00,BKN,,0.16,WeatherDisplay:10.37,2013-04-12 10:14:00,
2013-04-12 06:19:00,37.9,32.9,29.73,WSW,248,5.8,5.8,82,0.00,BKN,,0.16,WeatherDisplay:10.37,2013-04-12 10:19:00,
2013-04-12 06:24:00,37.8,32.8,29.73,WSW,248,5.8,5.8,82,0.00,BKN,,0.16,WeatherDisplay:10.37,2013-04-12 10:24:00,
2013-04-12 06:29:00,37.6,33.2,29.73,WSW,248,5.8,5.8,84,0.00,BKN,,0.16,WeatherDisplay:10.37,2013-04-12 10:29:00,
2013-04-12 06:34:00,37.4,33.0,29.73,WSW,248,5.8,5.8,84,0.00,BKN,,0.16,WeatherDisplay:10.37,2013-04-12 10:34:00,
2013-04-12 06:39:00,37.2,33.4,29.73,SW,225,5.8,5.8,86,0.00,BKN,,0.16,WeatherDisplay:10.37,2013-04-12 10:39:00,
2013-04-12 06:44:00,37.0,33.2,29.73,SW,225,4.6,4.6,86,0.00,BKN,,0.16,WeatherDisplay:10.37,2013-04-12 10:44:00,
2013-04-12 06:49:00,37.0,33.8,29.73,WSW,248,4.6,4.6,88,0.00,BKN,,0.16,WeatherDisplay:10.37,2013-04-12 10:49:00,
2013-04-12 06:54:00,36.9,33.6,29.73,WSW,248,5.8,5.8,88,0.00,BKN,,0.16,WeatherDisplay:10.37,2013-04-12 10:54:00,
2013-04-12 06:59:00,36.9,33.6,29.73,WSW,248,4.9,4.9,88,0.00,BKN,,0.16,WeatherDisplay:10.37,2013-04-12 10:59:00,
2013-04-12 07:04:00,36.7,34.0,29.73,SW,225,4.6,4.6,90,0.00,FEW,,0.16,WeatherDisplay:10.37,2013-04-12 11:04:00,
2013-04-12 07:09:00,36.7,34.0,29.73,WSW,248,4.6,4.6,90,0.00,FEW,,0.16,WeatherDisplay:10.37,2013-04-12 11:09:00,
2013-04-12 07:14:00,36.5,34.4,29.73,WSW,248,3.6,3.6,92,0.00,FEW,,0.16,WeatherDisplay:10.37,2013-04-12 11:14:00,
2013-04-12 07:19:00,36.5,33.8,29.76,SW,225,3.8,3.8,90,0.00,FEW,,0.16,WeatherDisplay:10.37,2013-04-12 11:19:00,
2013-04-12 07:24:00,36.3,34.2,29.76,WSW,248,4.6,4.6,92,0.00,FEW,,0.16,WeatherDisplay:10.37,2013-04-12 11:24:00,
2013-04-12 07:29:00,36.5,33.8,29.76,SSW,202,5.8,5.8,90,0.00,FEW,,0.16,WeatherDisplay:10.37,2013-04-12 11:29:00,
2013-04-12 07:34:00,36.5,33.8,29.76,SW,225,4.6,4.6,90,0.00,FEW,,0.16,WeatherDisplay:10.37,2013-04-12 11:34:00,
2013-04-12 07:39:00,36.5,34.4,29.76,WSW,248,4.6,4.6,92,0.00,FEW,,0.16,WeatherDisplay:10.37,2013-04-12 11:39:00,
2013-04-12 07:44:00,36.7,34.6,29.76,SW,225,4.6,4.6,92,0.00,FEW,,0.16,WeatherDisplay:10.37,2013-04-12 11:44:00,
2013-04-12 07:49:00,36.7,35.4,29.76,SW,225,4.6,4.6,95,0.00,FEW,,0.16,WeatherDisplay:10.37,2013-04-12 11:49:00,
2013-04-12 07:54:00,36.7,36.2,29.76,SW,225,4.6,4.6,98,0.00,FEW,,0.16,WeatherDisplay:10.37,2013-04-12 11:54:00,
2013-04-12 07:59:00,36.9,36.3,29.76,WSW,248,4.3,4.3,98,0.00,FEW,,0.16,WeatherDisplay:10.37,2013-04-12 11:59:00,
2013-04-12 08:04:00,37.2,35.1,29.76,SW,225,5.8,5.8,92,0.00,CLR,,0.16,WeatherDisplay:10.37,2013-04-12 12:04:00,
2013-04-12 08:09:00,37.4,36.1,29.76,SW,225,5.4,5.4,95,0.00,CLR,,0.16,WeatherDisplay:10.37,2013-04-12 12:09:00,
2013-04-12 08:14:00,37.8,36.2,29.76,West,270,6.9,6.9,94,0.00,CLR,,0.16,WeatherDisplay:10.37,2013-04-12 12:14:00,
2013-04-12 08:19:00,37.9,35.8,29.79,SW,225,4.6,4.6,92,0.00,CLR,,0.16,WeatherDisplay:10.37,2013-04-12 12:19:00,
2013-04-12 08:24:00,38.1,36.5,29.79,SW,225,5.8,5.8,94,0.00,CLR,,0.16,WeatherDisplay:10.37,2013-04-12 12:24:00,
2013-04-12 08:29:00,38.5,35.2,29.79,WSW,248,6.9,6.9,88,0.00,CLR,,0.16,WeatherDisplay:10.37,2013-04-12 12:29:00,
2013-04-12 08:34:00,38.7,34.2,29.79,West,270,6.2,6.2,84,0.00,CLR,,0.16,WeatherDisplay:10.37,2013-04-12 12:34:00,
2013-04-12 08:39:00,38.8,33.8,29.79,WSW,248,5.9,5.9,82,0.00,CLR,,0.16,WeatherDisplay:10.37,2013-04-12 12:39:00,
2013-04-12 08:44:00,39.2,33.5,29.79,West,270,8.1,8.1,80,0.00,CLR,,0.16,WeatherDisplay:10.37,2013-04-12 12:44:00,
2013-04-12 08:49:00,39.7,34.7,29.79,WSW,248,9.2,9.2,82,0.00,CLR,,0.16,WeatherDisplay:10.37,2013-04-12 12:49:00,
2013-04-12 08:54:00,39.9,34.2,29.79,SW,225,8.7,8.7,80,0.00,CLR,,0.16,WeatherDisplay:10.37,2013-04-12 12:54:00,
2013-04-12 08:59:00,40.5,34.8,29.79,WSW,248,6.9,6.9,80,0.00,CLR,,0.16,WeatherDisplay:10.37,2013-04-12 12:59:00,
2013-04-12 09:04:00,40.5,30.4,29.79,WSW,248,10.4,10.4,67,0.00,CLR,,0.16,WeatherDisplay:10.37,2013-04-12 13:04:00,
2013-04-12 09:09:00,40.6,30.5,29.79,SW,225,6.4,6.4,67,0.00,CLR,,0.16,WeatherDisplay:10.37,2013-04-12 13:09:00,
2013-04-12 09:14:00,41.0,30.9,29.79,WSW,248,8.5,8.5,67,0.00,CLR,,0.16,WeatherDisplay:10.37,2013-04-12 13:14:00,
2013-04-12 09:19:00,41.2,31.0,29.79,WSW,248,8.1,8.1,67,0.00,CLR,,0.16,WeatherDisplay:10.37,2013-04-12 13:19:00,
2013-04-12 09:24:00,41.7,31.6,29.79,WSW,248,6.2,6.2,67,0.00,CLR,,0.16,WeatherDisplay:10.37,2013-04-12 13:24:00,
2013-04-12 09:29:00,41.7,29.6,29.79,WSW,248,6.2,6.2,62,0.00,CLR,,0.16,WeatherDisplay:10.37,2013-04-12 13:29:00,
2013-04-12 09:34:00,42.3,30.2,29.79,WSW,248,6.2,6.2,62,0.00,CLR,,0.16,WeatherDisplay:10.37,2013-04-12 13:34:00,
2013-04-12 09:39:00,42.4,30.3,29.79,WSW,248,8.5,8.5,62,0.00,CLR,,0.16,WeatherDisplay:10.37,2013-04-12 13:39:00,
2013-04-12 09:44:00,43.0,30.0,29.79,West,270,9.2,9.2,60,0.00,CLR,,0.16,WeatherDisplay:10.37,2013-04-12 13:44:00,
2013-04-12 09:49:00,42.8,29.9,29.79,WSW,248,12.3,12.3,60,0.00,CLR,,0.16,WeatherDisplay:10.37,2013-04-12 13:49:00,
2013-04-12 09:54:00,43.0,30.0,29.79,SW,225,11.5,11.5,60,0.00,CLR,,0.16,WeatherDisplay:10.37,2013-04-12 13:54:00,
2013-04-12 09:59:00,43.5,30.5,29.79,SW,225,8.1,8.1,60,0.00,CLR,,0.16,WeatherDisplay:10.37,2013-04-12 13:59:00,
2013-04-12 10:05:00,43.9,30.9,29.79,WSW,248,12.7,12.7,60,0.00,FEW,,0.16,WeatherDisplay:10.37,2013-04-12 14:05:00,
2013-04-12 10:10:00,44.6,31.6,29.79,SW,225,8.5,8.5,60,0.00,FEW,,0.16,WeatherDisplay:10.37,2013-04-12 14:10:00,
2013-04-12 10:15:00,44.1,31.1,29.79,WSW,248,11.5,11.5,60,0.00,FEW,,0.16,WeatherDisplay:10.37,2013-04-12 14:15:00,
2013-04-12 10:20:00,44.8,31.7,29.79,WSW,248,13.8,13.8,60,0.00,FEW,,0.16,WeatherDisplay:10.37,2013-04-12 14:20:00,
2013-04-12 10:25:00,44.8,31.7,29.79,SW,225,10.4,10.4,60,0.00,FEW,,0.16,WeatherDisplay:10.37,2013-04-12 14:25:00,
2013-04-12 10:30:00,45.0,31.9,29.79,SW,225,13.8,13.8,60,0.00,FEW,,0.16,WeatherDisplay:10.37,2013-04-12 14:30:00,
2013-04-12 10:35:00,46.4,32.0,29.76,SW,225,11.5,11.5,57,0.00,FEW,,0.16,WeatherDisplay:10.37,2013-04-12 14:35:00,
2013-04-12 10:40:00,46.0,32.9,29.76,SW,225,8.1,8.1,60,0.00,FEW,,0.16,WeatherDisplay:10.37,2013-04-12 14:40:00,
2013-04-12 10:45:00,46.4,32.0,29.76,SW,225,9.8,9.8,57,0.00,FEW,,0.16,WeatherDisplay:10.37,2013-04-12 14:45:00,
2013-04-12 10:50:00,46.4,32.0,29.79,WSW,248,10.4,10.4,57,0.00,FEW,,0.16,WeatherDisplay:10.37,2013-04-12 14:50:00,
2013-04-12 10:55:00,47.3,32.8,29.79,WSW,248,10.9,10.9,57,0.00,FEW,,0.16,WeatherDisplay:10.37,2013-04-12 14:55:00,
2013-04-12 11:00:00,47.3,32.8,29.79,SW,225,10.4,10.4,57,0.00,FEW,,0.16,WeatherDisplay:10.37,2013-04-12 15:00:00,
2013-04-12 11:05:00,47.7,33.2,29.76,SW,225,12.7,12.7,57,0.00,FEW,,0.16,WeatherDisplay:10.37,2013-04-12 15:05:00,
2013-04-12 11:10:00,47.8,33.3,29.76,SW,225,11.5,11.5,57,0.00,FEW,,0.16,WeatherDisplay:10.37,2013-04-12 15:10:00,
2013-04-12 11:15:00,48.2,33.7,29.76,SW,225,12.7,12.7,57,0.00,FEW,,0.16,WeatherDisplay:10.37,2013-04-12 15:15:00,
2013-04-12 11:20:00,47.8,33.3,29.76,SW,225,12.7,12.7,57,0.00,FEW,,0.16,WeatherDisplay:10.37,2013-04-12 15:20:00,
2013-04-12 11:25:00,47.7,33.2,29.76,West,270,12.8,12.8,57,0.00,FEW,,0.16,WeatherDisplay:10.37,2013-04-12 15:25:00,
2013-04-12 11:30:00,48.7,34.2,29.76,SW,225,9.7,9.7,57,0.00,FEW,,0.16,WeatherDisplay:10.37,2013-04-12 15:30:00,
2013-04-12 11:35:00,50.4,35.7,29.79,SW,225,12.1,12.1,57,0.00,FEW,,0.16,WeatherDisplay:10.37,2013-04-12 15:35:00,
2013-04-12 11:40:00,49.3,34.7,29.79,SW,225,10.5,10.5,57,0.00,FEW,,0.16,WeatherDisplay:10.37,2013-04-12 15:40:00,
2013-04-12 11:45:00,50.9,36.2,29.79,SSW,202,8.7,8.7,57,0.00,FEW,,0.16,WeatherDisplay:10.37,2013-04-12 15:45:00,
2013-04-12 11:50:00,51.3,36.5,29.79,SW,225,10.7,10.7,57,0.00,FEW,,0.16,WeatherDisplay:10.37,2013-04-12 15:50:00,
2013-04-12 11:55:00,50.5,35.9,29.79,SW,225,11.5,11.5,57,0.00,FEW,,0.16,WeatherDisplay:10.37,2013-04-12 15:55:00,
2013-04-12 12:00:00,51.1,36.4,29.79,SW,225,10.4,10.4,57,0.00,FEW,,0.16,WeatherDisplay:10.37,2013-04-12 16:00:00,
2013-04-12 12:05:00,50.9,36.2,29.79,SSW,202,10.4,10.4,57,0.00,FEW,,0.16,WeatherDisplay:10.37,2013-04-12 16:05:00,
2013-04-12 12:10:00,51.6,36.9,29.79,SW,225,10.4,10.4,57,0.00,FEW,,0.16,WeatherDisplay:10.37,2013-04-12 16:10:00,
2013-04-12 12:15:00,51.1,36.4,29.79,SW,225,12.7,12.7,57,0.00,FEW,,0.16,WeatherDisplay:10.37,2013-04-12 16:15:00,
2013-04-12 12:20:00,52.5,36.8,29.79,WSW,248,11.5,11.5,55,0.00,SCT,,0.16,WeatherDisplay:10.37,2013-04-12 16:20:00,
2013-04-12 12:25:00,51.1,36.4,29.79,West,270,13.0,13.0,57,0.00,SCT,,0.16,WeatherDisplay:10.37,2013-04-12 16:25:00,
2013-04-12 12:30:00,50.5,35.9,29.79,SW,225,17.3,17.3,57,0.00,SCT,,0.16,WeatherDisplay:10.37,2013-04-12 16:30:00,
2013-04-12 12:35:00,51.1,36.4,29.76,West,270,13.8,13.8,57,0.00,SCT,,0.16,WeatherDisplay:10.37,2013-04-12 16:35:00,
2013-04-12 12:40:00,51.1,36.4,29.76,SSW,202,12.7,12.7,57,0.00,SCT,,0.16,WeatherDisplay:10.37,2013-04-12 16:40:00,
2013-04-12 12:45:00,50.9,36.2,29.76,West,270,16.1,16.1,57,0.00,SCT,,0.16,WeatherDisplay:10.37,2013-04-12 16:45:00,
2013-04-12 12:50:00,51.6,36.9,29.79,SW,225,13.0,13.0,57,0.00,SCT,,0.16,WeatherDisplay:10.37,2013-04-12 16:50:00,
2013-04-12 12:55:00,50.4,35.7,29.79,SW,225,17.3,17.3,57,0.00,SCT,,0.16,WeatherDisplay:10.37,2013-04-12 16:55:00,
2013-04-12 13:00:00,51.8,36.1,29.79,West,270,12.5,12.5,55,0.00,SCT,,0.16,WeatherDisplay:10.37,2013-04-12 17:00:00,
2013-04-12 13:05:00,50.7,36.0,29.79,SW,225,18.4,18.4,57,0.00,BKN,,0.16,WeatherDisplay:10.37,2013-04-12 17:05:00,
2013-04-12 13:10:00,50.9,36.2,29.79,WSW,248,16.1,16.1,57,0.00,BKN,,0.16,WeatherDisplay:10.37,2013-04-12 17:10:00,
2013-04-12 13:15:00,51.6,36.9,29.79,SW,225,15.0,15.0,57,0.00,BKN,,0.16,WeatherDisplay:10.37,2013-04-12 17:15:00,
2013-04-12 13:20:00,51.6,36.9,29.79,SW,225,16.1,16.1,57,0.00,BKN,,0.16,WeatherDisplay:10.37,2013-04-12 17:20:00,
2013-04-12 13:25:00,52.7,37.0,29.79,WSW,248,19.9,19.9,55,0.00,BKN,,0.16,WeatherDisplay:10.37,2013-04-12 17:25:00,
2013-04-12 13:30:00,52.9,37.1,29.79,SW,225,12.7,12.7,55,0.00,BKN,,0.16,WeatherDisplay:10.37,2013-04-12 17:30:00,
2013-04-12 13:36:00,53.8,38.0,29.79,WNW,292,17.3,17.3,55,0.00,BKN,,0.16,WeatherDisplay:10.37,2013-04-12 17:36:00,
2013-04-12 13:41:00,53.1,37.3,29.79,SW,225,12.7,12.7,55,0.00,BKN,,0.16,WeatherDisplay:10.37,2013-04-12 17:41:00,
2013-04-12 13:47:00,54.0,38.1,29.79,West,270,10.4,10.4,55,0.00,BKN,,0.16,WeatherDisplay:10.37,2013-04-12 17:47:00,
2013-04-12 13:52:00,53.2,37.5,29.79,SW,225,12.7,12.7,55,0.00,BKN,,0.16,WeatherDisplay:10.37,2013-04-12 17:52:00,
2013-04-12 13:57:00,52.9,37.1,29.79,SW,225,12.7,12.7,55,0.00,BKN,,0.16,WeatherDisplay:10.37,2013-04-12 17:57:00,
2013-04-12 14:02:00,53.6,37.8,29.79,SSW,202,17.3,17.3,55,0.00,BKN,,0.16,WeatherDisplay:10.37,2013-04-12 18:02:00,
2013-04-12 14:07:00,54.1,38.3,29.79,SW,225,15.0,15.0,55,0.00,BKN,,0.16,WeatherDisplay:10.37,2013-04-12 18:07:00,
2013-04-12 14:12:00,53.8,38.0,29.79,WSW,248,10.0,10.0,55,0.00,BKN,,0.16,WeatherDisplay:10.37,2013-04-12 18:12:00,
2013-04-12 14:18:00,54.3,38.5,29.79,SW,225,16.6,16.6,55,0.00,BKN,,0.16,WeatherDisplay:10.37,2013-04-12 18:18:00,
2013-04-12 14:23:00,53.4,37.6,29.79,WSW,248,19.2,19.2,55,0.00,BKN,,0.16,WeatherDisplay:10.37,2013-04-12 18:23:00,
2013-04-12 14:29:00,52.7,37.0,29.79,West,270,16.1,16.1,55,0.00,BKN,,0.16,WeatherDisplay:10.37,2013-04-12 18:29:00,
2013-04-12 15:26:00,53.4,37.6,29.79,West,270,19.6,19.6,55,0.00,OVC,,0.16,WeatherDisplay:10.37,2013-04-12 19:26:00,
2013-04-12 15:28:00,53.6,37.8,29.79,SW,225,16.1,16.1,55,0.00,OVC,,0.16,WeatherDisplay:10.37,2013-04-12 19:28:00,
2013-04-12 15:33:00,54.5,38.7,29.79,SW,225,13.8,13.8,55,0.00,OVC,,0.16,WeatherDisplay:10.37,2013-04-12 19:33:00,
2013-04-12 15:38:00,54.5,38.7,29.79,WSW,248,10.9,10.9,55,0.00,OVC,,0.16,WeatherDisplay:10.37,2013-04-12 19:38:00,
2013-04-12 15:43:00,54.7,38.8,29.79,West,270,12.7,12.7,55,0.00,OVC,,0.16,WeatherDisplay:10.37,2013-04-12 19:43:00,
2013-04-12 15:48:00,54.5,38.7,29.79,WSW,248,15.0,15.0,55,0.00,OVC,,0.16,WeatherDisplay:10.37,2013-04-12 19:48:00,
2013-04-12 15:53:00,54.7,38.8,29.79,West,270,14.5,14.5,55,0.00,OVC,,0.16,WeatherDisplay:10.37,2013-04-12 19:53:00,
2013-04-12 15:58:00,54.0,38.1,29.79,WSW,248,23.0,23.0,55,0.00,OVC,,0.16,WeatherDisplay:10.37,2013-04-12 19:58:00,
2013-04-12 16:03:00,54.3,38.5,29.79,WSW,248,13.8,13.8,55,0.00,OVC,,0.16,WeatherDisplay:10.37,2013-04-12 20:03:00,
2013-04-12 16:08:00,54.3,38.5,29.79,West,270,19.6,19.6,55,0.00,OVC,,0.16,WeatherDisplay:10.37,2013-04-12 20:08:00,
2013-04-12 16:13:00,54.3,38.5,29.79,West,270,12.8,12.8,55,0.00,OVC,,0.16,WeatherDisplay:10.37,2013-04-12 20:13:00,
2013-04-12 16:18:00,54.1,38.3,29.79,West,270,17.6,17.6,55,0.00,OVC,,0.16,WeatherDisplay:10.37,2013-04-12 20:18:00,
2013-04-12 16:23:00,54.0,38.1,29.79,West,270,16.1,16.1,55,0.00,OVC,,0.16,WeatherDisplay:10.37,2013-04-12 20:23:00,
2013-04-12 16:28:00,54.3,38.5,29.79,West,270,10.7,10.7,55,0.00,OVC,,0.16,WeatherDisplay:10.37,2013-04-12 20:28:00,
2013-04-12 16:33:00,54.0,38.1,29.79,West,270,12.7,12.7,55,0.00,OVC,,0.16,WeatherDisplay:10.37,2013-04-12 20:33:00,
2013-04-12 16:38:00,54.0,38.1,29.79,West,270,19.9,19.9,55,0.00,OVC,,0.16,WeatherDisplay:10.37,2013-04-12 20:38:00,
2013-04-12 16:43:00,53.6,37.8,29.79,SW,225,13.8,13.8,55,0.00,OVC,,0.16,WeatherDisplay:10.37,2013-04-12 20:43:00,
2013-04-12 16:48:00,53.8,38.0,29.79,WSW,248,16.1,16.1,55,0.00,OVC,,0.16,WeatherDisplay:10.37,2013-04-12 20:48:00,
2013-04-12 16:53:00,54.1,38.3,29.79,WSW,248,10.4,10.4,55,0.00,OVC,,0.16,WeatherDisplay:10.37,2013-04-12 20:53:00,
2013-04-12 16:58:00,54.0,38.1,29.79,WSW,248,17.3,17.3,55,0.00,OVC,,0.16,WeatherDisplay:10.37,2013-04-12 20:58:00,
2013-04-12 17:03:00,54.0,38.1,29.79,West,270,15.4,15.4,55,0.00,OVC,,0.16,WeatherDisplay:10.37,2013-04-12 21:03:00,
2013-04-12 17:08:00,54.1,38.3,29.79,WSW,248,10.2,10.2,55,0.00,OVC,,0.16,WeatherDisplay:10.37,2013-04-12 21:08:00,
2013-04-12 17:13:00,54.0,38.1,29.79,West,270,12.7,12.7,55,0.00,OVC,,0.16,WeatherDisplay:10.37,2013-04-12 21:13:00,
2013-04-12 17:18:00,54.0,38.1,29.79,WSW,248,10.4,10.4,55,0.00,OVC,,0.16,WeatherDisplay:10.37,2013-04-12 21:18:00,
2013-04-12 17:23:00,53.8,38.0,29.79,SW,225,12.7,12.7,55,0.00,OVC,,0.16,WeatherDisplay:10.37,2013-04-12 21:23:00,
2013-04-12 17:28:00,53.6,37.8,29.79,WSW,248,15.4,15.4,55,0.00,OVC,,0.16,WeatherDisplay:10.37,2013-04-12 21:28:00,
2013-04-12 17:33:00,53.6,37.8,29.76,WSW,248,13.2,13.2,55,0.00,OVC,,0.16,WeatherDisplay:10.37,2013-04-12 21:33:00,
2013-04-12 17:38:00,54.1,38.3,29.76,West,270,13.8,13.8,55,0.00,OVC,,0.16,WeatherDisplay:10.37,2013-04-12 21:38:00,
2013-04-12 17:43:00,54.3,38.5,29.76,West,270,12.7,12.7,55,0.00,OVC,,0.16,WeatherDisplay:10.37,2013-04-12 21:43:00,
2013-04-12 17:48:00,54.5,38.7,29.79,West,270,6.2,6.2,55,0.00,OVC,,0.16,WeatherDisplay:10.37,2013-04-12 21:48:00,
2013-04-12 17:53:00,54.0,38.1,29.79,West,270,12.7,12.7,55,0.00,OVC,,0.16,WeatherDisplay:10.37,2013-04-12 21:53:00,
2013-04-12 17:58:00,53.8,38.0,29.79,WSW,248,12.7,12.7,55,0.00,OVC,,0.16,WeatherDisplay:10.37,2013-04-12 21:58:00,
2013-04-12 18:03:00,53.6,37.8,29.79,West,270,10.4,10.4,55,0.00,OVC,,0.16,WeatherDisplay:10.37,2013-04-12 22:03:00,
2013-04-12 18:08:00,53.2,37.5,29.79,WSW,248,15.0,15.0,55,0.00,OVC,,0.16,WeatherDisplay:10.37,2013-04-12 22:08:00,
2013-04-12 18:13:00,53.1,37.3,29.79,NW,315,12.7,12.7,55,0.00,OVC,,0.16,WeatherDisplay:10.37,2013-04-12 22:13:00,
2013-04-12 18:18:00,52.9,37.1,29.82,West,270,12.7,12.7,55,0.00,OVC,,0.16,WeatherDisplay:10.37,2013-04-12 22:18:00,
2013-04-12 18:23:00,52.9,37.1,29.82,West,270,8.1,8.1,55,0.00,OVC,,0.16,WeatherDisplay:10.37,2013-04-12 22:23:00,
2013-04-12 18:28:00,52.9,37.1,29.82,WSW,248,11.5,11.5,55,0.00,OVC,,0.16,WeatherDisplay:10.37,2013-04-12 22:28:00,
2013-04-12 18:33:00,52.8,37.1,29.82,West,267,7.0,0.0,55,0.00,OVC,OVC,0.16,WeatherDisplay:10.37,2013-04-12 22:33:00,
2013-04-12 18:38:00,52.9,37.1,29.82,WSW,248,12.7,12.7,55,0.00,OVC,,0.16,WeatherDisplay:10.37,2013-04-12 22:38:00,
2013-04-12 18:43:00,52.7,37.0,29.82,WNW,292,6.9,6.9,55,0.00,OVC,,0.16,WeatherDisplay:10.37,2013-04-12 22:43:00,
2013-04-12 18:48:00,52.7,37.0,29.82,WSW,248,6.2,6.2,55,0.00,OVC,,0.16,WeatherDisplay:10.37,2013-04-12 22:48:00,
2013-04-12 18:53:00,52.5,36.8,29.82,West,270,10.4,10.4,55,0.00,OVC,,0.16,WeatherDisplay:10.37,2013-04-12 22:53:00,
2013-04-12 18:58:00,52.2,36.5,29.82,NNW,338,5.8,5.8,55,0.00,OVC,,0.16,WeatherDisplay:10.37,2013-04-12 22:58:00,
2013-04-12 19:03:00,52.0,36.3,29.84,WNW,289,5.0,0.0,55,0.00,OVC,OVC,0.16,WeatherDisplay:10.37,2013-04-12 23:03:00,
2013-04-12 19:08:00,51.6,36.9,29.85,NW,315,6.0,6.0,57,0.00,OVC,,0.16,WeatherDisplay:10.37,2013-04-12 23:08:00,
2013-04-12 19:13:00,51.6,36.9,29.85,WNW,292,8.1,8.1,57,0.00,OVC,,0.16,WeatherDisplay:10.37,2013-04-12 23:13:00,
2013-04-12 19:18:00,51.4,36.7,29.85,WNW,282,6.0,0.0,57,0.00,OVC,OVC,0.16,WeatherDisplay:10.37,2013-04-12 23:18:00,
2013-04-12 19:23:00,51.3,36.5,29.85,WNW,292,5.8,5.8,57,0.00,OVC,,0.16,WeatherDisplay:10.37,2013-04-12 23:23:00,
2013-04-12 19:28:00,51.3,36.5,29.85,West,270,8.1,8.1,57,0.00,OVC,,0.16,WeatherDisplay:10.37,2013-04-12 23:28:00,
2013-04-12 19:33:00,51.1,36.4,29.85,West,278,3.0,0.0,57,0.00,OVC,OVC,0.16,WeatherDisplay:10.37,2013-04-12 23:33:00,
2013-04-12 19:38:00,51.1,36.4,29.85,West,270,6.9,6.9,57,0.00,OVC,,0.16,WeatherDisplay:10.37,2013-04-12 23:38:00,
2013-04-12 19:43:00,50.9,36.2,29.85,West,270,9.2,9.2,57,0.00,OVC,,0.16,WeatherDisplay:10.37,2013-04-12 23:43:00,
2013-04-12 19:48:00,50.9,36.2,29.85,West,277,5.0,0.0,57,0.00,OVC,OVC,0.16,WeatherDisplay:10.37,2013-04-12 23:48:00,
2013-04-12 19:53:00,50.7,36.0,29.85,West,270,5.8,5.8,57,0.00,OVC,,0.16,WeatherDisplay:10.37,2013-04-12 23:53:00,
2013-04-12 19:58:00,50.5,35.9,29.85,West,270,5.8,5.8,57,0.00,OVC,,0.16,WeatherDisplay:10.37,2013-04-12 23:58:00,
2013-04-12 20:03:00,50.5,35.9,29.87,WNW,283,1.0,0.0,57,0.00,BKN,BKN,0.16,WeatherDisplay:10.37,2013-04-13 00:03:00,
2013-04-12 20:08:00,50.4,35.7,29.88,NW,315,3.5,3.5,57,0.00,BKN,,0.16,WeatherDisplay:10.37,2013-04-13 00:08:00,
2013-04-12 20:13:00,50.2,35.5,29.88,NE,45,2.3,2.9,57,0.00,BKN,,0.16,WeatherDisplay:10.37,2013-04-13 00:13:00,
2013-04-12 20:18:00,50.2,35.5,29.85,WNW,292,4.6,4.6,57,0.00,BKN,,0.16,WeatherDisplay:10.37,2013-04-13 00:18:00,
2013-04-12 20:23:00,49.8,35.2,29.85,North,0,5.8,5.8,57,0.00,BKN,,0.16,WeatherDisplay:10.37,2013-04-13 00:23:00,
2013-04-12 20:28:00,49.5,34.8,29.85,West,270,4.6,4.6,57,0.00,BKN,,0.16,WeatherDisplay:10.37,2013-04-13 00:28:00,
2013-04-12 20:33:00,49.3,34.7,29.88,NW,315,2.3,2.3,57,0.00,BKN,,0.16,WeatherDisplay:10.37,2013-04-13 00:33:00,
2013-04-12 20:38:00,48.9,34.3,29.88,NW,315,2.3,2.3,57,0.00,BKN,,0.16,WeatherDisplay:10.37,2013-04-13 00:38:00,
2013-04-12 20:43:00,48.7,34.2,29.88,NW,315,5.8,5.8,57,0.00,BKN,,0.16,WeatherDisplay:10.37,2013-04-13 00:43:00,
2013-04-12 20:48:00,48.4,33.8,29.82,NNE,22,5.8,5.8,57,0.00,BKN,,0.16,WeatherDisplay:10.37,2013-04-13 00:48:00,
2013-04-12 20:53:00,48.0,33.5,29.82,NW,315,3.5,3.5,57,0.00,BKN,,0.16,WeatherDisplay:10.37,2013-04-13 00:53:00,
2013-04-12 20:58:00,47.7,33.2,29.82,NW,315,3.5,3.5,57,0.00,BKN,,0.16,WeatherDisplay:10.37,2013-04-13 00:58:00,
2013-04-12 21:03:00,47.5,33.0,29.85,NNE,22,4.6,4.6,57,0.00,CLR,,0.16,WeatherDisplay:10.37,2013-04-13 01:03:00,
2013-04-12 21:08:00,47.3,32.8,29.85,NE,45,2.6,2.6,57,0.00,CLR,,0.16,WeatherDisplay:10.37,2013-04-13 01:08:00,
2013-04-12 21:13:00,46.9,32.5,29.85,NW,315,3.5,3.5,57,0.00,CLR,,0.16,WeatherDisplay:10.37,2013-04-13 01:13:00,
2013-04-12 21:18:00,46.8,32.3,29.85,NW,315,2.9,2.9,57,0.00,CLR,,0.16,WeatherDisplay:10.37,2013-04-13 01:18:00,
2013-04-12 21:23:00,46.4,32.0,29.85,NW,315,2.3,2.3,57,0.00,CLR,,0.16,WeatherDisplay:10.37,2013-04-13 01:23:00,
2013-04-12 21:28:00,46.2,33.1,29.85,NNW,338,2.3,2.3,60,0.00,CLR,,0.16,WeatherDisplay:10.37,2013-04-13 01:28:00,
2013-04-12 21:33:00,45.9,32.7,29.88,West,270,2.6,2.6,60,0.00,CLR,,0.16,WeatherDisplay:10.37,2013-04-13 01:33:00,
2013-04-12 21:38:00,45.9,32.7,29.88,North,0,4.6,4.6,60,0.00,CLR,,0.16,WeatherDisplay:10.37,2013-04-13 01:38:00,
2013-04-12 21:43:00,45.5,32.4,29.88,NNE,22,2.3,2.3,60,0.00,CLR,,0.16,WeatherDisplay:10.37,2013-04-13 01:43:00,
2013-04-12 21:48:00,45.5,32.4,29.88,NE,45,2.3,2.6,60,0.00,CLR,,0.16,WeatherDisplay:10.37,2013-04-13 01:48:00,
2013-04-12 21:53:00,45.3,32.2,29.88,NNW,338,3.5,3.5,60,0.00,CLR,,0.16,WeatherDisplay:10.37,2013-04-13 01:53:00,
2013-04-12 21:58:00,45.1,32.1,29.88,NE,45,1.2,0.0,60,0.00,CLR,,0.16,WeatherDisplay:10.37,2013-04-13 01:58:00,
2013-04-12 22:03:00,45.0,31.9,29.88,North,0,3.5,3.5,60,0.00,CLR,,0.16,WeatherDisplay:10.37,2013-04-13 02:03:00,
2013-04-12 22:08:00,44.8,31.7,29.88,NW,315,2.3,2.3,60,0.00,CLR,,0.16,WeatherDisplay:10.37,2013-04-13 02:08:00,
2013-04-12 22:13:00,44.6,31.6,29.88,NW,315,2.3,2.3,60,0.00,CLR,,0.16,WeatherDisplay:10.37,2013-04-13 02:13:00,
2013-04-12 22:18:00,44.4,31.4,29.88,North,0,1.2,1.2,60,0.00,CLR,,0.16,WeatherDisplay:10.37,2013-04-13 02:18:00,
2013-04-12 22:23:00,44.2,31.2,29.88,NNE,22,1.2,0.0,60,0.00,CLR,,0.16,WeatherDisplay:10.37,2013-04-13 02:23:00,
2013-04-12 22:28:00,43.9,30.9,29.88,North,0,0.0,0.0,60,0.00,CLR,,0.16,WeatherDisplay:10.37,2013-04-13 02:28:00,
2013-04-12 22:33:00,43.7,30.7,29.88,NW,315,2.3,2.3,60,0.00,CLR,,0.16,WeatherDisplay:10.37,2013-04-13 02:33:00,
2013-04-12 22:38:00,43.5,30.5,29.88,North,0,1.2,1.2,60,0.00,CLR,,0.16,WeatherDisplay:10.37,2013-04-13 02:38:00,
2013-04-12 22:43:00,43.3,30.4,29.88,WNW,292,2.3,2.3,60,0.00,CLR,,0.16,WeatherDisplay:10.37,2013-04-13 02:43:00,
2013-04-12 22:48:00,43.3,30.4,29.91,NW,315,2.3,2.3,60,0.00,CLR,,0.16,WeatherDisplay:10.37,2013-04-13 02:48:00,
2013-04-12 22:54:00,43.3,30.4,29.91,North,0,1.2,0.0,60,0.00,CLR,,0.16,WeatherDisplay:10.37,2013-04-13 02:54:00,
2013-04-12 22:59:00,43.2,30.2,29.91,NW,315,1.6,0.0,60,0.00,CLR,,0.16,WeatherDisplay:10.37,2013-04-13 02:59:00,
2013-04-12 23:03:00,36.0,0.7,29.93,NW,310,1.0,1.0,22,0.00,CLR,CLR,0.00,WeatherDisplay:10.37,2013-04-13 03:03:00,
2013-04-12 23:04:00,43.2,30.2,29.91,NW,315,2.3,2.3,60,0.00,RA,,0.00,WeatherDisplay:10.37,2013-04-13 03:04:00,
2013-04-12 23:09:00,43.0,30.0,29.91,North,0,1.4,0.0,60,0.00,RA,,0.00,WeatherDisplay:10.37,2013-04-13 03:09:00,
2013-04-12 23:14:00,42.8,29.9,29.91,NNW,338,1.2,0.0,60,0.00,CLR,,0.00,WeatherDisplay:10.37,2013-04-13 03:14:00,
2013-04-12 23:18:00,35.6,0.4,29.93,West,281,1.0,1.0,22,0.00,CLR,CLR,0.00,WeatherDisplay:10.37,2013-04-13 03:18:00,
2013-04-12 23:19:00,42.4,30.3,29.91,North,0,1.2,0.0,62,0.00,CLR,,0.00,WeatherDisplay:10.37,2013-04-13 03:19:00,
2013-04-12 23:24:00,42.4,30.3,29.91,NW,315,1.2,0.0,62,0.00,CLR,,0.00,WeatherDisplay:10.37,2013-04-13 03:24:00,
2013-04-12 23:33:00,35.4,4.7,29.93,West,270,1.0,1.0,27,0.00,CLR,CLR,0.00,WeatherDisplay:10.37,2013-04-13 03:33:00,
2013-04-12 23:48:00,35.4,7.0,29.96,West,270,1.0,2.0,30,0.00,CLR,CLR,0.00,WeatherDisplay:10.37,2013-04-13 03:48:00,